sensor_id;sensor_type;location;lat;lon;timestamp;P1;durP1;ratioP1;P2;durP2;ratioP2
54388;SDS011;40975;50.390;8.640;2023-03-14T00:00:03;2.42;;;1.27;;
54388;SDS011;40975;50.390;8.640;2023-03-14T00:02:30;1.52;;;1.00;;
54388;SDS011;40975;50.390;8.640;2023-03-14T00:04:56;2.85;;;1.08;;
54388;SDS011;40975;50.390;8.640;2023-03-14T00:07:21;2.05;;;0.90;;
54388;SDS011;40975;50.390;8.640;2023-03-14T00:09:49;3.63;;;0.98;;
54388;SDS011;40975;50.390;8.640;2023-03-14T00:12:14;1.38;;;0.80;;
54388;SDS011;40975;50.390;8.640;2023-03-14T00:14:40;1.33;;;0.75;;
54388;SDS011;40975;50.390;8.640;2023-03-14T00:17:07;1.38;;;0.90;;
54388;SDS011;40975;50.390;8.640;2023-03-14T00:19:33;1.70;;;0.70;;
54388;SDS011;40975;50.390;8.640;2023-03-14T00:21:58;3.05;;;1.00;;
54388;SDS011;40975;50.390;8.640;2023-03-14T00:24:23;3.83;;;1.00;;
54388;SDS011;40975;50.390;8.640;2023-03-14T00:26:49;1.85;;;0.98;;
54388;SDS011;40975;50.390;8.640;2023-03-14T00:29:14;2.97;;;1.10;;
54388;SDS011;40975;50.390;8.640;2023-03-14T00:31:39;2.45;;;1.10;;
54388;SDS011;40975;50.390;8.640;2023-03-14T00:34:07;3.47;;;1.10;;
54388;SDS011;40975;50.390;8.640;2023-03-14T00:36:33;0.95;;;0.80;;
54388;SDS011;40975;50.390;8.640;2023-03-14T00:38:59;3.47;;;0.95;;
54388;SDS011;40975;50.390;8.640;2023-03-14T00:41:24;3.47;;;1.08;;
54388;SDS011;40975;50.390;8.640;2023-03-14T00:43:50;3.40;;;1.00;;
54388;SDS011;40975;50.390;8.640;2023-03-14T00:46:16;2.17;;;1.35;;
54388;SDS011;40975;50.390;8.640;2023-03-14T00:48:43;1.42;;;0.70;;
54388;SDS011;40975;50.390;8.640;2023-03-14T00:51:10;3.50;;;1.30;;
54388;SDS011;40975;50.390;8.640;2023-03-14T00:53:36;0.93;;;0.93;;
54388;SDS011;40975;50.390;8.640;2023-03-14T00:56:04;2.40;;;1.10;;
54388;SDS011;40975;50.390;8.640;2023-03-14T00:58:31;3.45;;;1.08;;
54388;SDS011;40975;50.390;8.640;2023-03-14T01:00:56;2.50;;;1.02;;
54388;SDS011;40975;50.390;8.640;2023-03-14T01:03:22;2.92;;;1.30;;
54388;SDS011;40975;50.390;8.640;2023-03-14T01:05:49;2.58;;;1.10;;
54388;SDS011;40975;50.390;8.640;2023-03-14T01:08:15;3.47;;;1.05;;
54388;SDS011;40975;50.390;8.640;2023-03-14T01:10:40;2.25;;;1.23;;
54388;SDS011;40975;50.390;8.640;2023-03-14T01:13:06;3.15;;;1.50;;
54388;SDS011;40975;50.390;8.640;2023-03-14T01:15:35;3.50;;;1.30;;
54388;SDS011;40975;50.390;8.640;2023-03-14T01:18:01;2.20;;;0.80;;
54388;SDS011;40975;50.390;8.640;2023-03-14T01:20:28;0.98;;;0.88;;
54388;SDS011;40975;50.390;8.640;2023-03-14T01:22:53;2.72;;;1.45;;
54388;SDS011;40975;50.390;8.640;2023-03-14T01:25:18;2.70;;;1.52;;
54388;SDS011;40975;50.390;8.640;2023-03-14T01:27:44;2.20;;;0.98;;
54388;SDS011;40975;50.390;8.640;2023-03-14T01:30:11;2.30;;;1.00;;
54388;SDS011;40975;50.390;8.640;2023-03-14T01:32:38;2.58;;;1.30;;
54388;SDS011;40975;50.390;8.640;2023-03-14T01:35:03;1.58;;;1.10;;
54388;SDS011;40975;50.390;8.640;2023-03-14T01:37:30;3.33;;;1.42;;
54388;SDS011;40975;50.390;8.640;2023-03-14T01:39:56;2.50;;;1.30;;
54388;SDS011;40975;50.390;8.640;2023-03-14T01:42:21;4.28;;;1.30;;
54388;SDS011;40975;50.390;8.640;2023-03-14T01:44:50;2.95;;;1.58;;
54388;SDS011;40975;50.390;8.640;2023-03-14T01:47:24;3.85;;;1.20;;
54388;SDS011;40975;50.390;8.640;2023-03-14T01:49:54;4.68;;;1.35;;
54388;SDS011;40975;50.390;8.640;2023-03-14T01:52:29;1.85;;;1.00;;
54388;SDS011;40975;50.390;8.640;2023-03-14T01:55:07;3.72;;;1.08;;
54388;SDS011;40975;50.390;8.640;2023-03-14T01:57:39;1.88;;;1.15;;
54388;SDS011;40975;50.390;8.640;2023-03-14T02:00:10;5.05;;;1.25;;
54388;SDS011;40975;50.390;8.640;2023-03-14T02:02:43;7.15;;;1.73;;
54388;SDS011;40975;50.390;8.640;2023-03-14T02:05:14;3.60;;;0.95;;
54388;SDS011;40975;50.390;8.640;2023-03-14T02:07:47;2.05;;;1.10;;
54388;SDS011;40975;50.390;8.640;2023-03-14T02:10:21;3.17;;;0.93;;
54388;SDS011;40975;50.390;8.640;2023-03-14T02:12:50;2.65;;;1.35;;
54388;SDS011;40975;50.390;8.640;2023-03-14T02:15:35;2.63;;;1.00;;
54388;SDS011;40975;50.390;8.640;2023-03-14T02:18:36;7.22;;;1.40;;
54388;SDS011;40975;50.390;8.640;2023-03-14T02:21:38;2.97;;;1.23;;
54388;SDS011;40975;50.390;8.640;2023-03-14T02:27:05;1.65;;;0.65;;
54388;SDS011;40975;50.390;8.640;2023-03-14T02:29:39;3.85;;;1.00;;
54388;SDS011;40975;50.390;8.640;2023-03-14T02:32:10;1.45;;;0.77;;
54388;SDS011;40975;50.390;8.640;2023-03-14T02:34:39;3.65;;;0.65;;
54388;SDS011;40975;50.390;8.640;2023-03-14T02:37:07;1.63;;;0.70;;
54388;SDS011;40975;50.390;8.640;2023-03-14T02:39:35;4.78;;;0.88;;
54388;SDS011;40975;50.390;8.640;2023-03-14T02:42:03;4.80;;;1.00;;
54388;SDS011;40975;50.390;8.640;2023-03-14T02:44:30;3.58;;;1.58;;
54388;SDS011;40975;50.390;8.640;2023-03-14T02:46:55;2.00;;;1.13;;
54388;SDS011;40975;50.390;8.640;2023-03-14T02:49:21;3.97;;;0.80;;
54388;SDS011;40975;50.390;8.640;2023-03-14T02:51:47;3.40;;;1.00;;
54388;SDS011;40975;50.390;8.640;2023-03-14T02:54:13;1.27;;;1.05;;
54388;SDS011;40975;50.390;8.640;2023-03-14T02:56:40;2.00;;;0.70;;
54388;SDS011;40975;50.390;8.640;2023-03-14T02:59:06;2.60;;;0.80;;
54388;SDS011;40975;50.390;8.640;2023-03-14T03:01:54;1.00;;;0.65;;
54388;SDS011;40975;50.390;8.640;2023-03-14T03:04:20;2.05;;;0.70;;
54388;SDS011;40975;50.390;8.640;2023-03-14T03:06:45;1.02;;;0.70;;
54388;SDS011;40975;50.390;8.640;2023-03-14T03:09:11;1.88;;;0.80;;
54388;SDS011;40975;50.390;8.640;2023-03-14T03:11:36;0.80;;;0.60;;
54388;SDS011;40975;50.390;8.640;2023-03-14T03:14:03;4.53;;;1.45;;
54388;SDS011;40975;50.390;8.640;2023-03-14T03:16:28;4.15;;;0.70;;
54388;SDS011;40975;50.390;8.640;2023-03-14T03:18:54;1.63;;;0.60;;
54388;SDS011;40975;50.390;8.640;2023-03-14T03:21:19;2.20;;;0.70;;
54388;SDS011;40975;50.390;8.640;2023-03-14T03:23:48;4.00;;;0.52;;
54388;SDS011;40975;50.390;8.640;2023-03-14T03:26:13;4.72;;;0.80;;
54388;SDS011;40975;50.390;8.640;2023-03-14T03:28:39;2.17;;;0.55;;
54388;SDS011;40975;50.390;8.640;2023-03-14T03:31:08;3.70;;;1.40;;
54388;SDS011;40975;50.390;8.640;2023-03-14T03:33:36;3.00;;;0.85;;
54388;SDS011;40975;50.390;8.640;2023-03-14T03:36:02;2.60;;;1.05;;
54388;SDS011;40975;50.390;8.640;2023-03-14T03:38:31;2.33;;;0.63;;
54388;SDS011;40975;50.390;8.640;2023-03-14T03:41:02;2.60;;;0.90;;
54388;SDS011;40975;50.390;8.640;2023-03-14T03:43:28;2.55;;;0.70;;
54388;SDS011;40975;50.390;8.640;2023-03-14T03:45:54;4.40;;;1.30;;
54388;SDS011;40975;50.390;8.640;2023-03-14T03:48:22;1.15;;;0.73;;
54388;SDS011;40975;50.390;8.640;2023-03-14T03:50:47;5.88;;;0.93;;
54388;SDS011;40975;50.390;8.640;2023-03-14T03:53:16;2.60;;;0.70;;
54388;SDS011;40975;50.390;8.640;2023-03-14T03:55:41;2.50;;;0.98;;
54388;SDS011;40975;50.390;8.640;2023-03-14T03:58:08;3.55;;;0.80;;
54388;SDS011;40975;50.390;8.640;2023-03-14T04:00:33;1.70;;;0.60;;
54388;SDS011;40975;50.390;8.640;2023-03-14T04:02:59;3.90;;;0.55;;
54388;SDS011;40975;50.390;8.640;2023-03-14T04:05:25;5.30;;;1.48;;
54388;SDS011;40975;50.390;8.640;2023-03-14T04:08:00;4.80;;;1.90;;
54388;SDS011;40975;50.390;8.640;2023-03-14T04:10:27;4.10;;;1.20;;
54388;SDS011;40975;50.390;8.640;2023-03-14T04:13:22;3.72;;;1.40;;
54388;SDS011;40975;50.390;8.640;2023-03-14T04:15:51;3.83;;;1.20;;
54388;SDS011;40975;50.390;8.640;2023-03-14T04:18:22;2.38;;;0.70;;
54388;SDS011;40975;50.390;8.640;2023-03-14T04:20:53;1.40;;;0.80;;
54388;SDS011;40975;50.390;8.640;2023-03-14T04:23:21;2.35;;;0.90;;
54388;SDS011;40975;50.390;8.640;2023-03-14T04:25:52;3.28;;;0.85;;
54388;SDS011;40975;50.390;8.640;2023-03-14T04:28:20;3.33;;;1.00;;
54388;SDS011;40975;50.390;8.640;2023-03-14T04:30:45;3.28;;;0.70;;
54388;SDS011;40975;50.390;8.640;2023-03-14T04:33:15;4.65;;;1.33;;
54388;SDS011;40975;50.390;8.640;2023-03-14T04:35:47;2.88;;;1.50;;
54388;SDS011;40975;50.390;8.640;2023-03-14T04:38:14;2.42;;;1.00;;
54388;SDS011;40975;50.390;8.640;2023-03-14T04:40:43;1.58;;;0.80;;
54388;SDS011;40975;50.390;8.640;2023-03-14T04:43:09;3.28;;;1.17;;
54388;SDS011;40975;50.390;8.640;2023-03-14T04:45:42;2.75;;;1.02;;
54388;SDS011;40975;50.390;8.640;2023-03-14T04:48:09;4.43;;;1.10;;
54388;SDS011;40975;50.390;8.640;2023-03-14T04:50:34;2.15;;;0.82;;
54388;SDS011;40975;50.390;8.640;2023-03-14T04:53:00;1.35;;;0.80;;
54388;SDS011;40975;50.390;8.640;2023-03-14T04:55:25;2.10;;;0.60;;
54388;SDS011;40975;50.390;8.640;2023-03-14T04:57:53;3.28;;;0.88;;
54388;SDS011;40975;50.390;8.640;2023-03-14T05:00:18;1.40;;;0.65;;
54388;SDS011;40975;50.390;8.640;2023-03-14T05:03:10;3.08;;;1.05;;
54388;SDS011;40975;50.390;8.640;2023-03-14T05:05:54;2.60;;;0.85;;
54388;SDS011;40975;50.390;8.640;2023-03-14T05:08:55;1.05;;;0.80;;
54388;SDS011;40975;50.390;8.640;2023-03-14T05:11:43;5.30;;;1.00;;
54388;SDS011;40975;50.390;8.640;2023-03-14T05:14:34;2.03;;;0.90;;
54388;SDS011;40975;50.390;8.640;2023-03-14T05:17:15;2.45;;;0.90;;
54388;SDS011;40975;50.390;8.640;2023-03-14T05:20:02;1.23;;;0.90;;
54388;SDS011;40975;50.390;8.640;2023-03-14T05:22:49;2.47;;;0.60;;
54388;SDS011;40975;50.390;8.640;2023-03-14T05:25:23;3.38;;;0.77;;
54388;SDS011;40975;50.390;8.640;2023-03-14T05:28:06;4.95;;;1.10;;
54388;SDS011;40975;50.390;8.640;2023-03-14T05:30:43;0.40;;;0.40;;
54388;SDS011;40975;50.390;8.640;2023-03-14T05:33:40;2.10;;;0.73;;
54388;SDS011;40975;50.390;8.640;2023-03-14T05:36:24;1.95;;;0.60;;
54388;SDS011;40975;50.390;8.640;2023-03-14T05:38:59;0.90;;;0.43;;
54388;SDS011;40975;50.390;8.640;2023-03-14T05:42:00;1.75;;;1.00;;
54388;SDS011;40975;50.390;8.640;2023-03-14T05:44:42;1.75;;;0.52;;
54388;SDS011;40975;50.390;8.640;2023-03-14T05:47:22;1.40;;;0.90;;
54388;SDS011;40975;50.390;8.640;2023-03-14T05:50:15;2.25;;;0.52;;
54388;SDS011;40975;50.390;8.640;2023-03-14T05:53:09;0.70;;;0.60;;
54388;SDS011;40975;50.390;8.640;2023-03-14T05:56:01;1.48;;;0.50;;
54388;SDS011;40975;50.390;8.640;2023-03-14T05:58:55;2.60;;;0.52;;
54388;SDS011;40975;50.390;8.640;2023-03-14T06:01:41;0.40;;;0.40;;
54388;SDS011;40975;50.390;8.640;2023-03-14T06:04:12;1.23;;;0.50;;
54388;SDS011;40975;50.390;8.640;2023-03-14T06:06:39;2.17;;;0.60;;
54388;SDS011;40975;50.390;8.640;2023-03-14T06:09:05;2.47;;;0.40;;
54388;SDS011;40975;50.390;8.640;2023-03-14T06:11:33;1.25;;;0.60;;
54388;SDS011;40975;50.390;8.640;2023-03-14T06:13:59;3.35;;;0.52;;
54388;SDS011;40975;50.390;8.640;2023-03-14T06:16:24;0.80;;;0.52;;
54388;SDS011;40975;50.390;8.640;2023-03-14T06:18:52;2.63;;;0.60;;
54388;SDS011;40975;50.390;8.640;2023-03-14T06:21:19;0.65;;;0.38;;
54388;SDS011;40975;50.390;8.640;2023-03-14T06:23:46;1.77;;;0.40;;
54388;SDS011;40975;50.390;8.640;2023-03-14T06:26:11;0.68;;;0.30;;
54388;SDS011;40975;50.390;8.640;2023-03-14T06:28:38;2.17;;;0.30;;
54388;SDS011;40975;50.390;8.640;2023-03-14T06:31:03;0.32;;;0.20;;
54388;SDS011;40975;50.390;8.640;2023-03-14T06:33:41;2.95;;;0.50;;
54388;SDS011;40975;50.390;8.640;2023-03-14T06:36:07;0.38;;;0.20;;
54388;SDS011;40975;50.390;8.640;2023-03-14T06:38:33;1.98;;;0.40;;
54388;SDS011;40975;50.390;8.640;2023-03-14T06:41:06;2.17;;;0.43;;
54388;SDS011;40975;50.390;8.640;2023-03-14T06:43:42;0.85;;;0.28;;
54388;SDS011;40975;50.390;8.640;2023-03-14T06:46:08;0.77;;;0.30;;
54388;SDS011;40975;50.390;8.640;2023-03-14T06:48:36;0.60;;;0.50;;
54388;SDS011;40975;50.390;8.640;2023-03-14T06:51:02;1.58;;;0.68;;
54388;SDS011;40975;50.390;8.640;2023-03-14T06:53:27;0.85;;;0.63;;
54388;SDS011;40975;50.390;8.640;2023-03-14T06:55:53;2.10;;;0.40;;
54388;SDS011;40975;50.390;8.640;2023-03-14T06:58:19;0.65;;;0.20;;
54388;SDS011;40975;50.390;8.640;2023-03-14T07:00:45;3.20;;;0.73;;
54388;SDS011;40975;50.390;8.640;2023-03-14T07:03:14;1.25;;;0.30;;
54388;SDS011;40975;50.390;8.640;2023-03-14T07:05:42;1.00;;;0.40;;
54388;SDS011;40975;50.390;8.640;2023-03-14T07:08:08;0.75;;;0.40;;
54388;SDS011;40975;50.390;8.640;2023-03-14T07:10:34;1.98;;;0.20;;
54388;SDS011;40975;50.390;8.640;2023-03-14T07:12:59;4.22;;;0.47;;
54388;SDS011;40975;50.390;8.640;2023-03-14T07:15:27;0.73;;;0.40;;
54388;SDS011;40975;50.390;8.640;2023-03-14T07:17:56;1.95;;;1.15;;
54388;SDS011;40975;50.390;8.640;2023-03-14T07:20:23;1.30;;;0.38;;
54388;SDS011;40975;50.390;8.640;2023-03-14T07:22:49;1.02;;;0.35;;
54388;SDS011;40975;50.390;8.640;2023-03-14T07:25:18;1.67;;;0.30;;
54388;SDS011;40975;50.390;8.640;2023-03-14T07:27:44;0.22;;;0.22;;
54388;SDS011;40975;50.390;8.640;2023-03-14T07:30:10;1.45;;;1.20;;
54388;SDS011;40975;50.390;8.640;2023-03-14T07:32:36;0.15;;;0.15;;
54388;SDS011;40975;50.390;8.640;2023-03-14T07:35:01;2.63;;;0.43;;
54388;SDS011;40975;50.390;8.640;2023-03-14T07:37:27;1.73;;;0.40;;
54388;SDS011;40975;50.390;8.640;2023-03-14T07:39:52;1.20;;;0.50;;
54388;SDS011;40975;50.390;8.640;2023-03-14T07:42:24;2.58;;;0.63;;
54388;SDS011;40975;50.390;8.640;2023-03-14T07:45:14;0.40;;;0.30;;
54388;SDS011;40975;50.390;8.640;2023-03-14T07:47:39;0.28;;;0.28;;
54388;SDS011;40975;50.390;8.640;2023-03-14T07:50:05;0.63;;;0.22;;
54388;SDS011;40975;50.390;8.640;2023-03-14T07:52:30;2.15;;;0.52;;
54388;SDS011;40975;50.390;8.640;2023-03-14T07:54:55;1.35;;;0.17;;
54388;SDS011;40975;50.390;8.640;2023-03-14T07:57:21;2.08;;;0.55;;
54388;SDS011;40975;50.390;8.640;2023-03-14T07:59:47;0.20;;;0.20;;
54388;SDS011;40975;50.390;8.640;2023-03-14T08:02:12;1.38;;;0.30;;
54388;SDS011;40975;50.390;8.640;2023-03-14T08:04:38;1.00;;;0.40;;
54388;SDS011;40975;50.390;8.640;2023-03-14T08:07:05;0.95;;;0.30;;
54388;SDS011;40975;50.390;8.640;2023-03-14T08:09:30;1.10;;;0.20;;
54388;SDS011;40975;50.390;8.640;2023-03-14T08:11:56;0.25;;;0.22;;
54388;SDS011;40975;50.390;8.640;2023-03-14T08:14:22;1.95;;;0.20;;
54388;SDS011;40975;50.390;8.640;2023-03-14T08:16:50;0.65;;;0.40;;
54388;SDS011;40975;50.390;8.640;2023-03-14T08:19:15;0.30;;;0.30;;
54388;SDS011;40975;50.390;8.640;2023-03-14T08:21:41;0.43;;;0.43;;
54388;SDS011;40975;50.390;8.640;2023-03-14T08:24:06;1.33;;;0.60;;
54388;SDS011;40975;50.390;8.640;2023-03-14T08:26:31;1.48;;;0.30;;
54388;SDS011;40975;50.390;8.640;2023-03-14T08:28:57;1.17;;;0.60;;
54388;SDS011;40975;50.390;8.640;2023-03-14T08:31:22;1.88;;;0.47;;
54388;SDS011;40975;50.390;8.640;2023-03-14T08:33:47;0.43;;;0.40;;
54388;SDS011;40975;50.390;8.640;2023-03-14T08:36:13;2.65;;;0.50;;
54388;SDS011;40975;50.390;8.640;2023-03-14T08:38:38;0.60;;;0.43;;
54388;SDS011;40975;50.390;8.640;2023-03-14T08:41:04;0.30;;;0.30;;
54388;SDS011;40975;50.390;8.640;2023-03-14T08:43:29;1.60;;;0.50;;
54388;SDS011;40975;50.390;8.640;2023-03-14T08:45:58;0.82;;;0.40;;
54388;SDS011;40975;50.390;8.640;2023-03-14T08:48:24;1.73;;;0.98;;
54388;SDS011;40975;50.390;8.640;2023-03-14T08:50:50;0.30;;;0.30;;
54388;SDS011;40975;50.390;8.640;2023-03-14T08:53:15;1.63;;;0.98;;
54388;SDS011;40975;50.390;8.640;2023-03-14T08:55:40;0.70;;;0.60;;
54388;SDS011;40975;50.390;8.640;2023-03-14T08:58:06;0.40;;;0.30;;
54388;SDS011;40975;50.390;8.640;2023-03-14T09:00:31;0.90;;;0.30;;
54388;SDS011;40975;50.390;8.640;2023-03-14T09:02:56;0.98;;;0.77;;
54388;SDS011;40975;50.390;8.640;2023-03-14T09:05:22;0.57;;;0.32;;
54388;SDS011;40975;50.390;8.640;2023-03-14T09:07:47;1.20;;;0.40;;
54388;SDS011;40975;50.390;8.640;2023-03-14T09:10:12;0.52;;;0.28;;
54388;SDS011;40975;50.390;8.640;2023-03-14T09:12:38;1.88;;;0.45;;
54388;SDS011;40975;50.390;8.640;2023-03-14T09:15:03;0.20;;;0.20;;
54388;SDS011;40975;50.390;8.640;2023-03-14T09:17:29;0.30;;;0.30;;
54388;SDS011;40975;50.390;8.640;2023-03-14T09:19:54;1.48;;;0.50;;
54388;SDS011;40975;50.390;8.640;2023-03-14T09:22:19;0.77;;;0.65;;
54388;SDS011;40975;50.390;8.640;2023-03-14T09:24:45;0.55;;;0.32;;
54388;SDS011;40975;50.390;8.640;2023-03-14T09:27:11;0.47;;;0.47;;
54388;SDS011;40975;50.390;8.640;2023-03-14T09:29:36;1.13;;;0.45;;
54388;SDS011;40975;50.390;8.640;2023-03-14T09:32:02;0.55;;;0.20;;
54388;SDS011;40975;50.390;8.640;2023-03-14T09:34:28;0.20;;;0.20;;
54388;SDS011;40975;50.390;8.640;2023-03-14T09:36:53;0.17;;;0.17;;
54388;SDS011;40975;50.390;8.640;2023-03-14T09:39:19;1.50;;;0.32;;
54388;SDS011;40975;50.390;8.640;2023-03-14T09:41:46;0.20;;;0.20;;
54388;SDS011;40975;50.390;8.640;2023-03-14T09:44:21;1.95;;;0.40;;
54388;SDS011;40975;50.390;8.640;2023-03-14T09:46:51;1.83;;;0.75;;
54388;SDS011;40975;50.390;8.640;2023-03-14T09:49:20;2.08;;;1.77;;
54388;SDS011;40975;50.390;8.640;2023-03-14T09:51:53;2.25;;;1.00;;
54388;SDS011;40975;50.390;8.640;2023-03-14T09:54:31;1.77;;;0.63;;
54388;SDS011;40975;50.390;8.640;2023-03-14T09:57:01;1.02;;;0.45;;
54388;SDS011;40975;50.390;8.640;2023-03-14T09:59:28;0.93;;;0.50;;
54388;SDS011;40975;50.390;8.640;2023-03-14T10:01:55;1.35;;;0.40;;
54388;SDS011;40975;50.390;8.640;2023-03-14T10:04:25;0.35;;;0.20;;
54388;SDS011;40975;50.390;8.640;2023-03-14T10:06:50;0.70;;;0.40;;
54388;SDS011;40975;50.390;8.640;2023-03-14T10:09:20;1.45;;;0.90;;
54388;SDS011;40975;50.390;8.640;2023-03-14T10:11:51;0.50;;;0.50;;
54388;SDS011;40975;50.390;8.640;2023-03-14T10:14:28;5.45;;;0.80;;
54388;SDS011;40975;50.390;8.640;2023-03-14T10:17:04;0.25;;;0.20;;
54388;SDS011;40975;50.390;8.640;2023-03-14T10:19:32;0.30;;;0.30;;
54388;SDS011;40975;50.390;8.640;2023-03-14T10:21:57;1.42;;;0.50;;
54388;SDS011;40975;50.390;8.640;2023-03-14T10:24:27;1.83;;;0.57;;
54388;SDS011;40975;50.390;8.640;2023-03-14T10:26:58;0.40;;;0.40;;
54388;SDS011;40975;50.390;8.640;2023-03-14T10:29:29;2.38;;;0.40;;
54388;SDS011;40975;50.390;8.640;2023-03-14T10:32:00;0.50;;;0.50;;
54388;SDS011;40975;50.390;8.640;2023-03-14T10:34:31;0.40;;;0.40;;
54388;SDS011;40975;50.390;8.640;2023-03-14T10:37:05;0.95;;;0.57;;
54388;SDS011;40975;50.390;8.640;2023-03-14T10:39:46;0.38;;;0.38;;
54388;SDS011;40975;50.390;8.640;2023-03-14T10:42:19;0.57;;;0.47;;
54388;SDS011;40975;50.390;8.640;2023-03-14T10:44:48;2.28;;;0.40;;
54388;SDS011;40975;50.390;8.640;2023-03-14T10:47:19;0.43;;;0.40;;
54388;SDS011;40975;50.390;8.640;2023-03-14T10:49:47;0.70;;;0.40;;
54388;SDS011;40975;50.390;8.640;2023-03-14T10:52:15;1.52;;;1.33;;
54388;SDS011;40975;50.390;8.640;2023-03-14T10:54:48;2.10;;;0.85;;
54388;SDS011;40975;50.390;8.640;2023-03-14T10:57:19;0.40;;;0.40;;
54388;SDS011;40975;50.390;8.640;2023-03-14T10:59:45;0.50;;;0.50;;
54388;SDS011;40975;50.390;8.640;2023-03-14T11:05:09;0.50;;;0.45;;
54388;SDS011;40975;50.390;8.640;2023-03-14T11:07:40;0.38;;;0.38;;
54388;SDS011;40975;50.390;8.640;2023-03-14T11:13:06;0.52;;;0.50;;
54388;SDS011;40975;50.390;8.640;2023-03-14T11:29:50;0.40;;;0.30;;
54388;SDS011;40975;50.390;8.640;2023-03-14T11:32:27;0.25;;;0.25;;
54388;SDS011;40975;50.390;8.640;2023-03-14T11:35:03;0.50;;;0.40;;
54388;SDS011;40975;50.390;8.640;2023-03-14T11:37:41;0.40;;;0.40;;
54388;SDS011;40975;50.390;8.640;2023-03-14T11:40:18;1.45;;;0.43;;
54388;SDS011;40975;50.390;8.640;2023-03-14T11:42:52;2.40;;;0.50;;
54388;SDS011;40975;50.390;8.640;2023-03-14T11:45:25;0.28;;;0.28;;
54388;SDS011;40975;50.390;8.640;2023-03-14T11:48:04;0.32;;;0.32;;
54388;SDS011;40975;50.390;8.640;2023-03-14T11:50:31;0.50;;;0.40;;
54388;SDS011;40975;50.390;8.640;2023-03-14T11:53:04;0.32;;;0.28;;
54388;SDS011;40975;50.390;8.640;2023-03-14T11:55:39;0.03;;;0.03;;
54388;SDS011;40975;50.390;8.640;2023-03-14T11:58:11;1.20;;;0.15;;
54388;SDS011;40975;50.390;8.640;2023-03-14T12:00:40;0.10;;;0.10;;
54388;SDS011;40975;50.390;8.640;2023-03-14T12:06:09;0.00;;;0.00;;
54388;SDS011;40975;50.390;8.640;2023-03-14T12:14:20;0.13;;;0.10;;
54388;SDS011;40975;50.390;8.640;2023-03-14T12:16:48;0.10;;;0.10;;
54388;SDS011;40975;50.390;8.640;2023-03-14T12:21:48;0.20;;;0.20;;
54388;SDS011;40975;50.390;8.640;2023-03-14T12:24:20;0.20;;;0.20;;
54388;SDS011;40975;50.390;8.640;2023-03-14T12:26:53;0.25;;;0.25;;
54388;SDS011;40975;50.390;8.640;2023-03-14T12:29:20;0.47;;;0.40;;
54388;SDS011;40975;50.390;8.640;2023-03-14T12:31:49;0.32;;;0.32;;
54388;SDS011;40975;50.390;8.640;2023-03-14T12:34:41;0.30;;;0.30;;
54388;SDS011;40975;50.390;8.640;2023-03-14T12:48:10;1.08;;;0.40;;
54388;SDS011;40975;50.390;8.640;2023-03-14T12:50:55;0.35;;;0.35;;
54388;SDS011;40975;50.390;8.640;2023-03-14T12:56:08;0.30;;;0.30;;
54388;SDS011;40975;50.390;8.640;2023-03-14T12:58:54;0.40;;;0.40;;
54388;SDS011;40975;50.390;8.640;2023-03-14T13:01:29;0.20;;;0.20;;
54388;SDS011;40975;50.390;8.640;2023-03-14T13:03:57;0.32;;;0.20;;
54388;SDS011;40975;50.390;8.640;2023-03-14T13:11:53;0.30;;;0.30;;
54388;SDS011;40975;50.390;8.640;2023-03-14T13:14:19;1.20;;;0.30;;
54388;SDS011;40975;50.390;8.640;2023-03-14T13:16:46;0.30;;;0.30;;
54388;SDS011;40975;50.390;8.640;2023-03-14T13:19:18;1.10;;;0.40;;
54388;SDS011;40975;50.390;8.640;2023-03-14T13:21:48;0.57;;;0.57;;
54388;SDS011;40975;50.390;8.640;2023-03-14T13:24:25;0.50;;;0.50;;
54388;SDS011;40975;50.390;8.640;2023-03-14T13:26:52;1.40;;;0.60;;
54388;SDS011;40975;50.390;8.640;2023-03-14T13:29:20;0.68;;;0.68;;
54388;SDS011;40975;50.390;8.640;2023-03-14T13:31:49;1.98;;;0.65;;
54388;SDS011;40975;50.390;8.640;2023-03-14T13:34:15;0.55;;;0.50;;
54388;SDS011;40975;50.390;8.640;2023-03-14T13:36:41;1.88;;;0.70;;
54388;SDS011;40975;50.390;8.640;2023-03-14T13:39:10;0.40;;;0.40;;
54388;SDS011;40975;50.390;8.640;2023-03-14T13:41:39;0.65;;;0.57;;
54388;SDS011;40975;50.390;8.640;2023-03-14T13:44:06;0.70;;;0.70;;
54388;SDS011;40975;50.390;8.640;2023-03-14T13:46:34;0.95;;;0.45;;
54388;SDS011;40975;50.390;8.640;2023-03-14T13:49:05;1.08;;;0.65;;
54388;SDS011;40975;50.390;8.640;2023-03-14T13:51:34;0.82;;;0.60;;
54388;SDS011;40975;50.390;8.640;2023-03-14T13:54:03;0.98;;;0.50;;
54388;SDS011;40975;50.390;8.640;2023-03-14T13:56:29;0.52;;;0.43;;
54388;SDS011;40975;50.390;8.640;2023-03-14T13:58:56;0.20;;;0.20;;
54388;SDS011;40975;50.390;8.640;2023-03-14T14:01:22;0.20;;;0.20;;
54388;SDS011;40975;50.390;8.640;2023-03-14T14:03:50;0.20;;;0.20;;
54388;SDS011;40975;50.390;8.640;2023-03-14T14:09:09;0.20;;;0.20;;
54388;SDS011;40975;50.390;8.640;2023-03-14T14:14:10;0.32;;;0.32;;
54388;SDS011;40975;50.390;8.640;2023-03-14T14:16:39;0.17;;;0.17;;
54388;SDS011;40975;50.390;8.640;2023-03-14T14:19:06;0.20;;;0.20;;
54388;SDS011;40975;50.390;8.640;2023-03-14T14:21:32;0.40;;;0.30;;
54388;SDS011;40975;50.390;8.640;2023-03-14T14:23:58;0.50;;;0.40;;
54388;SDS011;40975;50.390;8.640;2023-03-14T14:26:25;0.20;;;0.20;;
54388;SDS011;40975;50.390;8.640;2023-03-14T14:29:02;0.43;;;0.40;;
54388;SDS011;40975;50.390;8.640;2023-03-14T14:31:30;0.43;;;0.43;;
54388;SDS011;40975;50.390;8.640;2023-03-14T14:33:57;0.40;;;0.40;;
54388;SDS011;40975;50.390;8.640;2023-03-14T14:36:38;0.93;;;0.60;;
54388;SDS011;40975;50.390;8.640;2023-03-14T14:39:19;0.52;;;0.50;;
54388;SDS011;40975;50.390;8.640;2023-03-14T14:41:47;0.60;;;0.60;;
54388;SDS011;40975;50.390;8.640;2023-03-14T14:44:16;0.60;;;0.60;;
54388;SDS011;40975;50.390;8.640;2023-03-14T14:46:45;0.90;;;0.90;;
54388;SDS011;40975;50.390;8.640;2023-03-14T14:49:15;1.05;;;0.95;;
54388;SDS011;40975;50.390;8.640;2023-03-14T14:51:45;0.70;;;0.70;;
54388;SDS011;40975;50.390;8.640;2023-03-14T14:54:17;1.05;;;0.90;;
54388;SDS011;40975;50.390;8.640;2023-03-14T14:56:48;0.95;;;0.85;;
54388;SDS011;40975;50.390;8.640;2023-03-14T14:59:23;1.08;;;0.80;;
54388;SDS011;40975;50.390;8.640;2023-03-14T15:02:03;0.80;;;0.80;;
54388;SDS011;40975;50.390;8.640;2023-03-14T15:04:30;1.05;;;1.00;;
54388;SDS011;40975;50.390;8.640;2023-03-14T15:06:56;1.80;;;0.98;;
54388;SDS011;40975;50.390;8.640;2023-03-14T15:09:22;1.33;;;1.00;;
54388;SDS011;40975;50.390;8.640;2023-03-14T15:11:47;1.27;;;1.17;;
54388;SDS011;40975;50.390;8.640;2023-03-14T15:14:14;1.30;;;1.08;;
54388;SDS011;40975;50.390;8.640;2023-03-14T15:16:39;0.85;;;0.70;;
54388;SDS011;40975;50.390;8.640;2023-03-14T15:19:09;1.00;;;0.90;;
54388;SDS011;40975;50.390;8.640;2023-03-14T15:21:37;2.17;;;0.70;;
54388;SDS011;40975;50.390;8.640;2023-03-14T15:24:03;1.50;;;0.98;;
54388;SDS011;40975;50.390;8.640;2023-03-14T15:26:30;1.33;;;0.68;;
54388;SDS011;40975;50.390;8.640;2023-03-14T15:28:55;0.95;;;0.90;;
54388;SDS011;40975;50.390;8.640;2023-03-14T15:31:21;0.73;;;0.60;;
54388;SDS011;40975;50.390;8.640;2023-03-14T15:33:47;1.48;;;0.90;;
54388;SDS011;40975;50.390;8.640;2023-03-14T15:36:21;0.70;;;0.60;;
54388;SDS011;40975;50.390;8.640;2023-03-14T15:38:55;0.98;;;0.80;;
54388;SDS011;40975;50.390;8.640;2023-03-14T15:41:21;0.73;;;0.65;;
54388;SDS011;40975;50.390;8.640;2023-03-14T15:43:47;1.58;;;0.55;;
54388;SDS011;40975;50.390;8.640;2023-03-14T15:46:13;0.68;;;0.63;;
54388;SDS011;40975;50.390;8.640;2023-03-14T15:48:39;1.30;;;1.05;;
54388;SDS011;40975;50.390;8.640;2023-03-14T15:51:05;1.92;;;1.23;;
54388;SDS011;40975;50.390;8.640;2023-03-14T15:53:30;1.23;;;0.80;;
54388;SDS011;40975;50.390;8.640;2023-03-14T15:55:56;1.15;;;0.82;;
54388;SDS011;40975;50.390;8.640;2023-03-14T15:58:21;1.60;;;0.88;;
54388;SDS011;40975;50.390;8.640;2023-03-14T16:00:47;2.30;;;1.00;;